Time;durP1;ratioP1;P1;durP2;ratioP2;P2;SDS_P1;SDS_P2;PMS_P1;PMS_P2;Temp;Humidity;BMP_temperature;BMP_pressure;BME280_temperature;BME280_humidity;BME280_pressure;Samples;Min_cycle;Max_cycle;Signal;HPM_P1;HPM_P2
2023/06/05 00:01:59;;;;;;;3.20;2.23;;;;;;;13.36;72.53;101078.47;5062062;28;20577;-80
2023/06/05 00:04:25;;;;;;;3.00;1.63;;;;;;;13.43;72.36;101074.81;5061685;28;20354;-79
2023/06/05 00:06:51;;;;;;;3.80;1.60;;;;;;;13.50;71.79;101079.06;5061952;28;20229;-79
2023/06/05 00:09:18;;;;;;;3.03;1.73;;;;;;;13.56;72.17;101092.03;5061400;28;20225;-79
2023/06/05 00:11:44;;;;;;;2.60;1.80;;;;;;;13.58;71.90;101103.38;5060824;28;20545;-79
2023/06/05 00:14:12;;;;;;;1.80;1.70;;;;;;;13.57;71.38;101120.00;5061703;28;20618;-79
2023/06/05 00:16:39;;;;;;;2.30;1.60;;;;;;;13.38;71.84;101129.13;5061317;28;20784;-79
2023/06/05 00:19:05;;;;;;;4.57;1.63;;;;;;;13.35;73.16;101122.19;5061715;28;20205;-80
2023/06/05 00:21:32;;;;;;;2.27;1.63;;;;;;;13.39;72.45;101105.50;5061634;28;20201;-80
2023/06/05 00:23:58;;;;;;;2.53;2.03;;;;;;;13.14;73.09;101123.44;5061705;28;20745;-79
2023/06/05 00:26:24;;;;;;;2.67;1.80;;;;;;;12.85;74.04;101097.75;5061907;28;20294;-79
2023/06/05 00:28:51;;;;;;;2.17;1.97;;;;;;;12.77;74.23;101090.03;5061307;28;20322;-80
2023/06/05 00:31:21;;;;;;;1.70;1.60;;;;;;;12.70;74.81;101068.31;5061805;28;20201;-79
2023/06/05 00:33:47;;;;;;;2.80;1.60;;;;;;;12.73;74.77;101061.28;5061096;28;20208;-79
2023/06/05 00:36:14;;;;;;;4.30;1.70;;;;;;;12.82;74.66;101053.25;5060693;28;20232;-80
2023/06/05 00:38:40;;;;;;;2.00;1.80;;;;;;;12.74;74.70;101063.00;5061107;28;20206;-80
2023/06/05 00:41:06;;;;;;;2.00;1.80;;;;;;;12.88;74.45;101059.25;5060683;28;20213;-79
2023/06/05 00:43:33;;;;;;;1.80;1.63;;;;;;;12.89;74.27;101066.22;5060535;28;20209;-79
2023/06/05 00:46:03;;;;;;;1.80;1.70;;;;;;;12.93;74.32;101069.66;5060227;28;20236;-80
2023/06/05 00:48:33;;;;;;;3.13;1.87;;;;;;;12.66;75.13;101071.00;5059792;28;20224;-79
2023/06/05 00:50:59;;;;;;;2.07;1.87;;;;;;;12.60;75.77;101061.50;5060742;28;20258;-79
2023/06/05 00:53:26;;;;;;;2.27;2.07;;;;;;;12.42;76.43;101046.09;5060184;28;20210;-79
2023/06/05 00:55:53;;;;;;;2.27;1.80;;;;;;;12.45;76.65;101039.06;5060398;28;20228;-79
2023/06/05 00:58:20;;;;;;;2.00;1.80;;;;;;;12.65;76.37;101033.47;5059921;28;20205;-80
2023/06/05 01:00:49;;;;;;;2.83;2.00;;;;;;;12.72;75.72;101039.44;5060055;28;20209;-79
2023/06/05 01:03:16;;;;;;;3.57;1.83;;;;;;;12.45;76.98;101040.81;5059667;28;20204;-80
2023/06/05 01:05:48;;;;;;;2.03;1.83;;;;;;;12.34;77.44;101037.50;5059660;28;20210;-80
2023/06/05 01:08:16;;;;;;;2.60;1.90;;;;;;;12.20;78.22;101019.41;5062745;28;20260;-79
2023/06/05 01:10:43;;;;;;;3.53;1.90;;;;;;;12.12;78.87;101002.06;5061641;28;20212;-79
2023/06/05 01:13:18;;;;;;;2.53;2.00;;;;;;;12.19;78.94;100991.50;5064459;28;20688;-79
2023/06/05 01:15:45;;;;;;;3.10;2.20;;;;;;;12.21;78.58;100993.22;5063340;28;20691;-79
2023/06/05 01:18:12;;;;;;;2.50;2.30;;;;;;;12.05;79.40;100999.56;5061886;28;20209;-79
2023/06/05 01:20:41;;;;;;;3.83;2.20;;;;;;;12.12;79.27;100977.66;5063089;28;20208;-79
2023/06/05 01:23:09;;;;;;;2.10;1.90;;;;;;;12.17;79.22;100991.56;5060000;28;20710;-79
2023/06/05 01:25:37;;;;;;;2.07;1.90;;;;;;;12.35;78.73;100997.34;5060197;28;20207;-80
2023/06/05 01:28:09;;;;;;;1.87;1.77;;;;;;;12.37;78.39;101016.50;5061673;28;20204;-80
2023/06/05 01:30:41;;;;;;;4.43;1.93;;;;;;;12.45;78.12;101025.97;5058307;28;20204;-80
2023/06/05 01:33:12;;;;;;;3.13;2.17;;;;;;;12.42;78.23;101035.63;5059693;28;20211;-80
2023/06/05 01:35:40;;;;;;;2.93;2.10;;;;;;;12.27;78.04;101032.38;5059755;28;20210;-80
2023/06/05 01:38:09;;;;;;;1.97;1.87;;;;;;;12.16;78.78;101033.44;5058674;28;20208;-80
2023/06/05 01:40:38;;;;;;;2.47;2.27;;;;;;;12.29;78.33;101029.75;5058469;28;20205;-80
2023/06/05 01:43:06;;;;;;;2.33;2.13;;;;;;;12.13;78.93;101036.97;5058626;28;20254;-79
2023/06/05 01:45:37;;;;;;;2.83;2.10;;;;;;;12.28;78.84;101026.25;5058730;28;20201;-80
2023/06/05 01:48:03;;;;;;;3.07;2.03;;;;;;;12.11;79.48;101034.38;5057773;28;20247;-79
2023/06/05 01:50:35;;;;;;;2.10;1.87;;;;;;;11.95;79.84;101025.03;5058302;28;20213;-79
2023/06/05 01:53:02;;;;;;;2.40;2.20;;;;;;;11.89;80.73;101012.91;5058786;28;20295;-79
2023/06/05 01:55:29;;;;;;;2.20;2.00;;;;;;;12.08;79.90;100996.94;5058827;28;20215;-80
2023/06/05 01:57:56;;;;;;;2.73;2.20;;;;;;;12.17;79.76;101007.25;5058367;28;20228;-80
2023/06/05 02:00:24;;;;;;;3.27;2.17;;;;;;;12.15;79.11;101016.88;5059189;28;20653;-81
2023/06/05 02:02:50;;;;;;;2.37;2.13;;;;;;;11.95;80.12;101030.25;5060517;28;20279;-80
2023/06/05 02:05:19;;;;;;;2.80;2.47;;;;;;;12.07;80.31;101016.13;5059037;28;20207;-79
2023/06/05 02:07:49;;;;;;;2.40;2.20;;;;;;;12.25;78.48;101023.69;5058887;28;20232;-81
2023/06/05 02:10:18;;;;;;;2.60;2.40;;;;;;;12.31;78.66;101044.53;5058844;28;20235;-80
2023/06/05 02:12:45;;;;;;;2.10;1.90;;;;;;;12.43;77.89;101055.69;5059695;28;20234;-80
2023/06/05 02:15:14;;;;;;;2.23;2.03;;;;;;;12.50;77.56;101076.50;5059285;28;20266;-80
2023/06/05 02:17:44;;;;;;;2.43;2.23;;;;;;;12.57;76.98;101087.75;5059037;28;20231;-80
2023/06/05 02:20:12;;;;;;;3.93;2.10;;;;;;;12.63;76.40;101108.59;5059788;28;20291;-80
2023/06/05 02:22:38;;;;;;;4.00;2.37;;;;;;;12.68;76.05;101129.47;5058795;28;20205;-80
2023/06/05 02:25:06;;;;;;;2.07;1.80;;;;;;;12.65;75.83;101140.88;5059311;28;20676;-80
2023/06/05 02:27:32;;;;;;;2.67;2.33;;;;;;;12.65;76.40;101148.72;5059330;28;20236;-79
2023/06/05 02:29:59;;;;;;;2.70;1.90;;;;;;;12.63;76.38;101144.41;5059280;28;20236;-80
2023/06/05 02:32:28;;;;;;;3.00;2.50;;;;;;;12.49;76.81;101147.25;5060079;28;20213;-80
2023/06/05 02:34:56;;;;;;;3.47;2.70;;;;;;;12.37;77.25;101132.59;5059368;28;20208;-80
2023/06/05 02:37:23;;;;;;;2.47;2.23;;;;;;;12.28;78.07;101110.00;5061508;28;20255;-80
2023/06/05 02:39:49;;;;;;;2.40;2.20;;;;;;;12.20;78.77;101100.56;5061296;28;20200;-80
2023/06/05 02:42:18;;;;;;;2.30;2.10;;;;;;;12.26;78.87;101084.75;5058666;28;20216;-80
2023/06/05 02:44:44;;;;;;;3.97;2.87;;;;;;;12.35;78.50;101083.72;5058547;28;20312;-80
2023/06/05 02:47:11;;;;;;;2.97;2.57;;;;;;;12.38;77.98;101087.16;5059903;28;20236;-80
2023/06/05 02:49:38;;;;;;;3.33;2.13;;;;;;;12.41;77.57;101092.38;5060205;28;20227;-80
2023/06/05 02:52:05;;;;;;;2.80;2.50;;;;;;;12.30;78.22;101091.66;5058504;28;20254;-80
2023/06/05 02:54:32;;;;;;;2.80;2.50;;;;;;;12.32;78.44;101080.28;5059730;28;20227;-80
2023/06/05 02:57:00;;;;;;;4.53;2.20;;;;;;;12.37;77.86;101089.81;5059343;28;20285;-81
2023/06/05 02:59:27;;;;;;;3.07;2.17;;;;;;;12.39;77.60;101095.88;5051533;28;20207;-81
2023/06/05 03:01:54;;;;;;;2.77;2.33;;;;;;;12.38;77.89;101107.25;5051481;28;20643;-81
2023/06/05 03:04:21;;;;;;;4.33;2.53;;;;;;;12.10;79.06;101100.69;5051794;28;20292;-80
2023/06/05 03:06:49;;;;;;;2.87;2.60;;;;;;;12.10;78.89;101087.59;5051350;28;20236;-80
2023/06/05 03:09:15;;;;;;;3.37;3.07;;;;;;;12.13;79.21;101073.63;5051412;28;20714;-79
2023/06/05 03:11:42;;;;;;;2.23;2.13;;;;;;;11.99;79.94;101065.97;5051720;28;20204;-80
2023/06/05 03:14:08;;;;;;;4.20;2.73;;;;;;;11.93;80.76;101047.72;5051622;28;20210;-80
2023/06/05 03:16:41;;;;;;;4.10;2.17;;;;;;;11.98;80.81;101029.38;5051287;28;20228;-80
2023/06/05 03:19:07;;;;;;;2.80;2.60;;;;;;;12.08;80.23;101028.31;5051308;28;20210;-80
2023/06/05 03:21:35;;;;;;;5.00;2.63;;;;;;;11.96;80.29;101037.22;5051710;28;20269;-79
2023/06/05 03:24:03;;;;;;;3.27;2.97;;;;;;;11.81;81.45;101019.09;5052086;28;20208;-79
2023/06/05 03:26:30;;;;;;;4.40;2.80;;;;;;;11.83;81.49;101004.25;5051278;28;20232;-80
2023/06/05 03:28:56;;;;;;;2.43;2.23;;;;;;;11.52;83.21;100991.63;5051341;28;20320;-80
2023/06/05 03:31:23;;;;;;;3.47;2.97;;;;;;;11.54;83.54;100963.72;5051744;28;20270;-80
2023/06/05 03:33:49;;;;;;;2.57;2.37;;;;;;;11.69;82.87;100954.75;5051518;28;20212;-79
2023/06/05 03:36:17;;;;;;;3.83;3.00;;;;;;;11.75;82.48;100970.34;5051352;28;20229;-80
2023/06/05 03:38:43;;;;;;;3.40;3.10;;;;;;;11.74;82.61;100971.25;5051413;28;20213;-81
2023/06/05 03:41:12;;;;;;;3.43;3.00;;;;;;;11.50;83.96;100973.34;5050875;28;20211;-80
2023/06/05 03:43:38;;;;;;;2.90;2.70;;;;;;;11.44;84.58;100939.44;5052128;28;20654;-80
2023/06/05 03:46:05;;;;;;;2.87;2.50;;;;;;;11.55;84.69;100934.06;5051964;28;20232;-80
2023/06/05 03:48:31;;;;;;;3.80;3.00;;;;;;;11.56;84.82;100927.09;5054943;28;20255;-79
2023/06/05 03:51:00;;;;;;;4.13;3.80;;;;;;;11.23;85.91;100926.69;5055198;28;20208;-80
2023/06/05 03:53:29;;;;;;;3.07;2.87;;;;;;;11.31;86.42;100903.91;5055167;28;20213;-80
2023/06/05 03:55:56;;;;;;;3.93;3.53;;;;;;;11.45;85.84;100901.94;5055135;28;20313;-79
2023/06/05 03:58:26;;;;;;;3.63;3.27;;;;;;;11.39;85.79;100912.50;5055014;28;20204;-80
2023/06/05 04:00:53;;;;;;;3.30;3.00;;;;;;;11.33;86.57;100903.00;5056386;28;20195;-80
2023/06/05 04:03:20;;;;;;;3.97;3.03;;;;;;;11.30;87.01;100899.59;5071463;28;20200;-80
2023/06/05 04:05:47;;;;;;;3.67;3.37;;;;;;;10.93;88.97;100879.19;5062884;28;20693;-80
2023/06/05 04:08:13;;;;;;;3.53;3.23;;;;;;;10.75;90.90;100845.50;5055136;28;20209;-80
2023/06/05 04:10:40;;;;;;;3.70;3.40;;;;;;;10.67;91.96;100804.66;5056175;28;20255;-80
2023/06/05 04:13:07;;;;;;;3.50;3.20;;;;;;;10.76;92.03;100797.59;5056295;28;20267;-80
2023/06/05 04:15:35;;;;;;;4.03;3.73;;;;;;;10.78;91.78;100799.28;5055255;28;20244;-79
2023/06/05 04:18:01;;;;;;;4.60;4.20;;;;;;;10.78;91.94;100794.06;5055495;28;20206;-80
2023/06/05 04:20:28;;;;;;;4.17;3.77;;;;;;;10.67;93.19;100790.75;5056009;28;20275;-79
2023/06/05 04:22:54;;;;;;;4.20;3.80;;;;;;;10.84;92.85;100783.56;5055442;28;20203;-80
2023/06/05 04:25:20;;;;;;;4.60;4.23;;;;;;;10.90;92.61;100788.69;5054880;28;20236;-79
2023/06/05 04:27:51;;;;;;;4.07;3.67;;;;;;;10.98;92.56;100790.31;5054255;28;20275;-79
2023/06/05 04:30:18;;;;;;;3.93;3.63;;;;;;;10.98;91.99;100813.81;5055614;28;20231;-80
2023/06/05 04:32:54;;;;;;;3.77;3.47;;;;;;;10.87;92.83;100819.22;5055524;28;20266;-80
2023/06/05 04:35:21;;;;;;;4.10;3.77;;;;;;;10.87;93.42;100813.97;5056005;28;20271;-80
2023/06/05 04:37:47;;;;;;;4.77;3.77;;;;;;;10.75;93.50;100812.41;5054985;28;20236;-80
2023/06/05 04:40:16;;;;;;;5.97;4.10;;;;;;;10.82;94.00;100807.94;5054876;28;20208;-80
2023/06/05 04:42:42;;;;;;;3.90;3.60;;;;;;;10.93;93.68;100804.31;5055000;28;20265;-80
2023/06/05 04:45:09;;;;;;;6.00;3.90;;;;;;;11.01;93.00;100825.09;5054337;28;20214;-79
2023/06/05 04:47:36;;;;;;;4.83;3.73;;;;;;;10.92;92.79;100844.38;5087453;23;20715;-78
2023/06/05 04:50:06;;;;;;;6.13;4.30;;;;;;;10.84;93.47;100846.25;5077903;28;20227;-79
2023/06/05 04:52:34;;;;;;;4.23;3.83;;;;;;;10.89;94.02;100833.09;5078732;28;20601;-81
2023/06/05 04:55:02;;;;;;;4.47;4.07;;;;;;;10.85;94.11;100836.66;5078912;28;20229;-81
2023/06/05 04:57:29;;;;;;;5.33;4.70;;;;;;;10.79;95.00;100829.75;5086241;28;20250;-82
2023/06/05 04:59:56;;;;;;;6.13;4.63;;;;;;;10.87;95.17;100819.22;5096749;28;20202;-81
2023/06/05 05:02:23;;;;;;;4.90;4.50;;;;;;;10.92;94.48;100839.16;5098749;28;20236;-81
2023/06/05 05:04:49;;;;;;;7.80;4.40;;;;;;;11.06;94.68;100832.84;5099731;28;20277;-79
2023/06/05 05:07:17;;;;;;;5.67;4.20;;;;;;;11.14;93.61;100859.75;5096646;28;20224;-79
2023/06/05 05:09:49;;;;;;;6.37;4.70;;;;;;;11.30;92.57;100876.94;5098381;28;20286;-82
2023/06/05 05:12:16;;;;;;;5.70;5.10;;;;;;;11.37;91.73;100889.91;5097776;28;20203;-81
2023/06/05 05:14:44;;;;;;;4.90;4.50;;;;;;;11.31;91.69;100903.91;5097946;28;20208;-81
2023/06/05 05:17:16;;;;;;;4.90;4.40;;;;;;;11.38;91.95;100909.91;5097733;28;20226;-82
2023/06/05 05:19:43;;;;;;;5.50;5.00;;;;;;;11.48;91.44;100909.75;5098385;28;20204;-80
2023/06/05 05:22:09;;;;;;;5.33;4.93;;;;;;;11.46;91.41;100919.38;5098814;28;20229;-81
2023/06/05 05:24:37;;;;;;;4.63;4.30;;;;;;;11.45;92.16;100915.03;5099201;28;20625;-82
2023/06/05 05:27:04;;;;;;;5.00;4.47;;;;;;;11.56;92.19;100920.09;5098575;28;20248;-81
2023/06/05 05:29:33;;;;;;;5.60;5.00;;;;;;;11.32;92.87;100916.13;5098513;28;20310;-80
2023/06/05 05:31:59;;;;;;;5.47;4.97;;;;;;;11.27;94.37;100899.63;5098884;28;20201;-80
2023/06/05 05:34:31;;;;;;;5.77;4.83;;;;;;;11.30;94.04;100887.38;5098727;28;20230;-83
2023/06/05 05:36:57;;;;;;;5.77;5.07;;;;;;;11.14;95.73;100875.44;5097683;28;20228;-80
2023/06/05 05:39:24;;;;;;;5.60;5.10;;;;;;;11.15;96.66;100850.16;5097148;28;20201;-82
2023/06/05 05:41:51;;;;;;;6.03;5.43;;;;;;;11.28;96.56;100844.72;5098337;28;20257;-82
2023/06/05 05:44:19;;;;;;;5.40;4.90;;;;;;;11.18;96.60;100840.53;5098321;28;20203;-81
2023/06/05 05:46:46;;;;;;;6.10;5.17;;;;;;;11.29;96.30;100840.34;5098169;28;20238;-82
2023/06/05 05:49:12;;;;;;;6.23;5.70;;;;;;;11.33;96.93;100842.88;5101727;28;20644;-82
2023/06/05 05:51:39;;;;;;;6.00;5.50;;;;;;;11.28;96.49;100847.34;5099281;28;20731;-82
2023/06/05 05:54:06;;;;;;;6.00;5.37;;;;;;;11.47;96.57;100850.50;5100883;28;20728;-82
2023/06/05 05:56:33;;;;;;;6.60;5.97;;;;;;;11.50;96.56;100847.00;5104833;28;20475;-81
2023/06/05 05:59:01;;;;;;;6.00;5.40;;;;;;;11.62;96.10;100861.63;5104466;28;20199;-82
2023/06/05 06:01:28;;;;;;;10.07;6.27;;;;;;;11.76;96.13;100874.47;5100950;28;20206;-82
2023/06/05 06:03:54;;;;;;;7.10;6.03;;;;;;;11.71;96.62;100872.81;5104371;28;20271;-81
2023/06/05 06:06:21;;;;;;;5.63;5.13;;;;;;;11.88;97.01;100874.25;5101750;28;20203;-78
2023/06/05 06:08:48;;;;;;;6.63;5.93;;;;;;;11.92;96.62;100875.97;5100459;28;20250;-79
2023/06/05 06:11:15;;;;;;;6.27;5.77;;;;;;;12.01;97.51;100872.31;5100091;28;20226;-78
2023/06/05 06:13:41;;;;;;;6.43;5.93;;;;;;;12.26;95.66;100885.81;5099062;28;20287;-79
2023/06/05 06:16:09;;;;;;;5.47;4.93;;;;;;;12.42;93.11;100931.75;5100332;28;20666;-79
2023/06/05 06:18:35;;;;;;;6.50;5.90;;;;;;;12.62;92.71;100948.84;5100651;28;20249;-80
2023/06/05 06:21:03;;;;;;;6.60;5.97;;;;;;;12.70;91.25;100989.75;5099514;28;20734;-80
2023/06/05 06:23:31;;;;;;;7.50;5.83;;;;;;;12.63;90.55;101018.69;5100248;28;20218;-80
2023/06/05 06:25:57;;;;;;;5.43;4.93;;;;;;;12.82;90.34;101022.66;5100994;28;20846;-79
2023/06/05 06:28:24;;;;;;;7.20;6.07;;;;;;;12.97;90.09;101033.78;5063248;22;20274;-73
2023/06/05 06:30:51;;;;;;;7.17;5.70;;;;;;;13.05;89.28;101050.22;5051903;28;20594;-73
2023/06/05 06:33:19;;;;;;;6.63;6.03;;;;;;;13.11;88.74;101077.16;5053006;28;20212;-74
2023/06/05 06:35:45;;;;;;;6.13;5.53;;;;;;;13.20;89.42;101067.38;5052108;28;20258;-73
2023/06/05 06:38:12;;;;;;;10.27;5.40;;;;;;;13.33;88.15;101081.16;5051894;28;20713;-74
2023/06/05 06:40:38;;;;;;;6.13;5.17;;;;;;;13.46;86.11;101103.63;5052203;28;20262;-73
2023/06/05 06:43:05;;;;;;;6.23;5.67;;;;;;;13.56;84.98;101139.25;5051622;28;20311;-73
2023/06/05 06:45:31;;;;;;;5.77;5.27;;;;;;;13.72;85.40;101152.06;5052122;28;20307;-73
2023/06/05 06:47:58;;;;;;;6.87;5.50;;;;;;;13.78;84.49;101175.56;5051850;28;20300;-73
2023/06/05 06:50:26;;;;;;;8.97;6.97;;;;;;;13.90;83.58;101214.66;5052218;28;20295;-73
2023/06/05 06:52:52;;;;;;;6.10;5.47;;;;;;;13.83;84.37;101207.81;5051950;28;20590;-76
2023/06/05 06:55:19;;;;;;;5.70;5.20;;;;;;;13.89;84.87;101205.06;5052078;28;20271;-72
2023/06/05 06:57:45;;;;;;;5.97;4.97;;;;;;;14.01;83.44;101214.44;5051504;28;20818;-72
2023/06/05 07:00:12;;;;;;;7.37;6.07;;;;;;;13.95;84.72;101212.81;5052075;28;20208;-72
2023/06/05 07:02:41;;;;;;;8.37;6.60;;;;;;;13.94;83.99;101199.72;5052266;28;20208;-73
2023/06/05 07:05:07;;;;;;;5.73;5.20;;;;;;;14.05;83.24;101217.00;5052600;28;20209;-73
2023/06/05 07:07:35;;;;;;;5.90;5.17;;;;;;;14.19;83.37;101224.56;5052348;28;20213;-73
2023/06/05 07:10:01;;;;;;;5.83;5.33;;;;;;;14.35;82.86;101230.38;5052143;28;20275;-73
2023/06/05 07:12:28;;;;;;;5.60;5.20;;;;;;;14.47;81.86;101245.84;5052180;28;20248;-73
2023/06/05 07:14:55;;;;;;;6.33;5.83;;;;;;;14.34;82.98;101249.63;5052236;28;20209;-73
2023/06/05 07:17:22;;;;;;;5.07;4.67;;;;;;;14.47;81.80;101245.00;5052216;28;20640;-73
2023/06/05 07:19:48;;;;;;;6.93;5.40;;;;;;;14.52;80.90;101277.25;5051891;28;20311;-75
2023/06/05 07:22:15;;;;;;;7.13;5.23;;;;;;;14.58;80.75;101286.81;5054702;28;20622;-73
2023/06/05 07:24:42;;;;;;;6.20;5.70;;;;;;;14.70;80.16;101290.00;5056135;28;20686;-72
2023/06/05 07:27:09;;;;;;;5.97;5.47;;;;;;;14.73;80.30;101296.09;5055812;28;20270;-73
2023/06/05 07:29:36;;;;;;;5.57;5.03;;;;;;;14.76;79.53;101306.56;5055812;28;20229;-72
2023/06/05 07:32:06;;;;;;;7.13;5.23;;;;;;;14.84;79.29;101321.25;5055664;28;20319;-73
2023/06/05 07:34:32;;;;;;;6.13;5.53;;;;;;;14.90;79.19;101320.25;5055403;28;20223;-73
2023/06/05 07:36:59;;;;;;;6.73;4.93;;;;;;;15.00;78.47;101334.06;5055325;28;20556;-74
2023/06/05 07:39:25;;;;;;;5.70;5.13;;;;;;;15.08;78.08;101345.25;5055066;28;20657;-73
2023/06/05 07:41:53;;;;;;;7.97;6.20;;;;;;;15.04;77.82;101355.00;5055448;28;20330;-74
2023/06/05 07:44:21;;;;;;;5.67;5.17;;;;;;;14.99;78.87;101334.97;5055184;28;20255;-74
2023/06/05 07:46:48;;;;;;;5.77;5.17;;;;;;;15.12;77.67;101346.91;5054944;28;20670;-73
2023/06/05 07:49:15;;;;;;;11.03;5.20;;;;;;;15.25;76.84;101365.91;5054628;28;20722;-72
2023/06/05 07:51:43;;;;;;;4.90;4.50;;;;;;;15.35;75.77;101395.50;5054692;28;20261;-73
2023/06/05 07:54:11;;;;;;;5.53;4.77;;;;;;;15.40;75.05;101415.53;5055174;28;20232;-73
2023/06/05 07:56:38;;;;;;;6.93;4.40;;;;;;;15.52;74.57;101434.56;5054683;28;20213;-73
2023/06/05 07:59:06;;;;;;;5.00;4.60;;;;;;;15.58;75.00;101431.78;5055076;28;20233;-73
2023/06/05 08:01:36;;;;;;;7.00;4.23;;;;;;;15.69;74.26;101451.69;5054880;28;20622;-73
2023/06/05 08:04:02;;;;;;;4.80;3.70;;;;;;;15.80;73.42;101451.47;5054514;28;20209;-73
2023/06/05 08:06:29;;;;;;;6.60;4.43;;;;;;;15.90;73.54;101470.53;5054261;28;20201;-73
2023/06/05 08:08:56;;;;;;;4.33;3.93;;;;;;;15.98;74.16;101462.44;5054460;28;20222;-73
2023/06/05 08:11:22;;;;;;;6.23;4.37;;;;;;;15.99;72.75;101453.63;5054364;28;20638;-73
2023/06/05 08:13:49;;;;;;;5.47;3.77;;;;;;;16.10;71.92;101493.75;5059108;28;20657;-73
2023/06/05 08:16:16;;;;;;;4.37;3.60;;;;;;;16.22;71.80;101509.25;5074438;28;20208;-73
2023/06/05 08:18:43;;;;;;;5.07;4.20;;;;;;;16.19;73.29;101495.28;5074269;28;20544;-73
2023/06/05 08:21:09;;;;;;;5.57;3.67;;;;;;;16.32;72.30;101480.03;5074588;28;20213;-73
2023/06/05 08:23:36;;;;;;;4.67;4.10;;;;;;;16.38;70.92;101506.22;5074261;28;20242;-73
2023/06/05 08:26:10;;;;;;;5.83;4.47;;;;;;;16.41;70.48;101527.19;5074592;28;20205;-73
2023/06/05 08:28:36;;;;;;;4.43;4.13;;;;;;;16.48;70.67;101532.28;5073858;28;20229;-73
2023/06/05 08:31:02;;;;;;;4.77;3.87;;;;;;;16.55;71.20;101524.22;5073894;28;20229;-73
2023/06/05 08:33:30;;;;;;;5.73;4.63;;;;;;;16.60;70.64;101515.28;5073058;28;20664;-73
2023/06/05 08:35:56;;;;;;;4.40;4.07;;;;;;;16.68;71.96;101515.06;5073965;28;20244;-73
2023/06/05 08:38:23;;;;;;;5.03;4.03;;;;;;;16.78;73.66;101466.44;5073619;28;20221;-73
2023/06/05 08:40:57;;;;;;;4.10;3.70;;;;;;;16.95;70.55;101476.56;5073956;28;20197;-73
2023/06/05 08:43:23;;;;;;;4.70;3.47;;;;;;;17.07;69.73;101499.09;5055878;28;20210;-73
2023/06/05 08:45:51;;;;;;;4.80;3.20;;;;;;;17.07;68.72;101528.09;5053655;28;20201;-73
2023/06/05 08:48:20;;;;;;;3.77;2.93;;;;;;;17.12;69.24;101552.56;5053587;28;20241;-73
2023/06/05 08:50:48;;;;;;;4.90;2.90;;;;;;;17.22;67.82;101559.34;5053739;28;20275;-72
2023/06/05 08:53:17;;;;;;;2.93;2.60;;;;;;;17.37;68.84;101555.38;5054220;28;20209;-73
2023/06/05 08:55:45;;;;;;;4.53;2.73;;;;;;;17.48;67.30;101560.31;5053708;28;20209;-73
2023/06/05 08:58:13;;;;;;;2.23;2.00;;;;;;;17.56;66.54;101583.84;5053452;28;20229;-73
2023/06/05 09:00:40;;;;;;;2.30;2.13;;;;;;;17.65;65.27;101620.56;5053592;28;20209;-74
2023/06/05 09:03:07;;;;;;;3.13;2.33;;;;;;;17.73;64.14;101649.38;5053431;28;20198;-73
2023/06/05 09:05:33;;;;;;;2.50;2.30;;;;;;;17.79;65.05;101655.34;5053498;28;20693;-73
2023/06/05 09:08:02;;;;;;;3.40;2.33;;;;;;;17.86;63.94;101686.00;5053115;28;20263;-74
2023/06/05 09:10:30;;;;;;;2.40;2.20;;;;;;;17.95;64.40;101679.56;5053635;28;20201;-73
2023/06/05 09:12:58;;;;;;;3.07;2.40;;;;;;;18.00;63.73;101682.09;5053357;28;20201;-73
2023/06/05 09:15:26;;;;;;;2.70;2.17;;;;;;;18.13;63.58;101701.06;5063467;28;20204;-73
2023/06/05 09:18:05;;;;;;;2.33;2.23;;;;;;;18.24;65.11;101646.97;5065190;28;20211;-73
2023/06/05 09:20:34;;;;;;;3.63;2.43;;;;;;;18.33;65.53;101661.66;5053234;28;20694;-73
2023/06/05 09:23:02;;;;;;;2.60;1.87;;;;;;;18.43;62.42;101671.03;5053785;28;20205;-73
2023/06/05 09:25:45;;;;;;;2.60;2.03;;;;;;;18.46;59.39;101752.03;5053565;28;20251;-73
2023/06/05 09:28:11;;;;;;;2.10;1.80;;;;;;;18.55;59.95;101777.31;5053439;28;20722;-73
2023/06/05 09:30:54;;;;;;;3.03;1.83;;;;;;;18.71;57.50;101836.78;5053482;28;20259;-73
2023/06/05 09:33:21;;;;;;;4.57;2.20;;;;;;;18.88;58.77;101872.47;5053570;28;20663;-73
2023/06/05 09:35:47;;;;;;;3.63;2.43;;;;;;;18.94;60.26;101841.38;5053366;28;20213;-73
2023/06/05 09:38:27;;;;;;;3.33;2.20;;;;;;;19.06;56.35;101824.25;5052577;28;20375;-74
2023/06/05 09:41:01;;;;;;;1.80;1.70;;;;;;;19.13;53.13;101917.59;5052918;28;20749;-73
2023/06/05 09:43:27;;;;;;;2.13;1.93;;;;;;;19.20;55.51;101977.34;5052876;28;20201;-75
2023/06/05 09:45:54;;;;;;;2.57;2.27;;;;;;;19.26;55.62;101966.56;5053082;28;20202;-74
2023/06/05 09:48:21;;;;;;;2.13;2.03;;;;;;;19.37;57.50;101929.19;5052833;28;20710;-72
2023/06/05 09:51:08;;;;;;;2.20;2.00;;;;;;;19.49;58.95;101897.00;5058437;28;20255;-76
2023/06/05 09:53:41;;;;;;;3.50;1.70;;;;;;;19.60;53.32;101886.91;5064884;28;20246;-77
2023/06/05 09:56:10;;;;;;;2.20;1.60;;;;;;;19.67;54.65;101952.94;5064167;28;20198;-77
2023/06/05 09:58:38;;;;;;;1.93;1.77;;;;;;;19.77;54.66;101967.66;5063498;28;20225;-77
2023/06/05 10:01:06;;;;;;;1.97;1.67;;;;;;;19.84;53.47;101970.03;5062802;28;20228;-77
2023/06/05 10:03:37;;;;;;;2.67;1.97;;;;;;;19.84;53.98;101974.47;5064836;28;20254;-76
2023/06/05 10:06:05;;;;;;;3.93;2.00;;;;;;;19.93;52.93;101960.06;5062146;28;20724;-76
2023/06/05 10:08:33;;;;;;;2.17;1.70;;;;;;;20.02;53.22;101980.97;5062859;28;20710;-75
2023/06/05 10:11:01;;;;;;;3.13;2.03;;;;;;;20.10;54.70;101967.41;5065445;28;20216;-76
2023/06/05 10:13:29;;;;;;;2.27;2.07;;;;;;;20.18;57.04;101918.53;5061434;28;20246;-75
2023/06/05 10:15:56;;;;;;;5.33;2.07;;;;;;;20.33;57.76;101876.44;5065025;28;20227;-76
2023/06/05 10:18:23;;;;;;;3.13;2.03;;;;;;;20.44;54.67;101842.44;5060365;28;20213;-77
2023/06/05 10:20:50;;;;;;;2.00;1.80;;;;;;;20.53;50.90;101911.06;5065191;28;20211;-77
2023/06/05 10:23:19;;;;;;;3.90;2.07;;;;;;;20.65;50.99;101956.66;5066653;28;20258;-76
2023/06/05 10:25:47;;;;;;;2.30;1.83;;;;;;;20.73;49.70;101989.97;5066112;28;20204;-78
2023/06/05 10:28:39;;;;;;;3.10;1.93;;;;;;;20.83;49.33;102001.97;5072190;28;20233;-76
2023/06/05 10:31:19;;;;;;;2.30;2.10;;;;;;;20.91;49.97;102051.25;5053798;28;20225;-74
2023/06/05 10:33:59;;;;;;;2.60;1.93;;;;;;;21.02;47.29;102065.00;5051945;28;20217;-74
2023/06/05 10:36:41;;;;;;;1.93;1.70;;;;;;;21.06;46.30;102121.53;5051401;28;20648;-74
2023/06/05 10:39:09;;;;;;;4.13;1.47;;;;;;;21.18;49.51;102139.66;5051675;28;20725;-73
2023/06/05 10:41:36;;;;;;;2.87;1.60;;;;;;;21.27;50.08;102104.81;5050203;28;20205;-74
2023/06/05 10:44:04;;;;;;;2.23;1.60;;;;;;;21.38;48.29;102057.44;5051827;28;20215;-74
2023/06/05 10:49:15;;;;;;;1.77;1.37;;;;;;;21.60;43.42;102144.34;5032312;28;20226;-79
2023/06/05 10:51:43;;;;;;;2.53;1.60;;;;;;;21.61;43.05;102215.19;5034083;28;20300;-79
2023/06/05 10:54:11;;;;;;;2.47;1.57;;;;;;;21.66;43.25;102221.19;5038025;28;20202;-80
2023/06/05 10:56:55;;;;;;;2.30;1.20;;;;;;;21.69;40.48;102263.59;5039911;28;20245;-80
2023/06/05 10:59:23;;;;;;;3.43;1.50;;;;;;;21.80;41.75;102311.06;5044623;28;20225;-80
2023/06/05 11:02:23;;;;;;;2.53;1.90;;;;;;;21.86;43.04;102355.16;5049550;28;20197;-80
2023/06/05 11:05:08;;;;;;;2.13;1.60;;;;;;;21.97;41.29;102313.97;5041584;28;20194;-80
2023/06/05 11:07:35;;;;;;;1.63;1.50;;;;;;;22.16;44.91;102290.22;5049463;28;20209;-80
2023/06/05 11:10:09;;;;;;;1.87;1.20;;;;;;;22.33;42.12;102231.06;5050010;28;20763;-81
2023/06/05 11:12:58;;;;;;;1.47;1.30;;;;;;;22.53;43.01;102242.69;5048503;28;20225;-80
2023/06/05 11:15:45;;;;;;;7.37;1.70;;;;;;;22.66;40.88;102216.47;5050899;28;20285;-80
2023/06/05 11:18:35;;;;;;;1.53;1.40;;;;;;;22.83;39.96;102274.31;5049972;28;20230;-79
2023/06/05 11:21:02;;;;;;;3.47;1.50;;;;;;;23.01;42.66;102273.56;5052662;28;20202;-81
2023/06/05 11:23:29;;;;;;;1.50;1.40;;;;;;;23.22;42.63;102231.84;5049012;28;20224;-81
2023/06/05 11:25:57;;;;;;;2.67;1.60;;;;;;;23.42;39.52;102224.78;5058527;28;20202;-81
2023/06/05 11:28:43;;;;;;;4.20;1.70;;;;;;;23.64;39.36;102235.34;5059305;28;20316;-81
2023/06/05 11:31:12;;;;;;;1.70;1.60;;;;;;;23.95;38.69;102307.72;5059075;28;20255;-81
2023/06/05 11:33:39;;;;;;;2.13;1.53;;;;;;;24.70;36.47;102340.75;5055007;28;20207;-81